createdAt,value
2019-05-25T00:00:56.155Z,3.07
2019-05-25T00:03:25.865Z,3.30
2019-05-25T00:05:55.266Z,3.40
2019-05-25T00:08:24.697Z,3.50
2019-05-25T00:10:54.123Z,3.60
2019-05-25T00:13:23.521Z,3.43
2019-05-25T00:15:52.907Z,3.83
2019-05-25T00:18:22.285Z,3.40
2019-05-25T00:20:51.923Z,3.50
2019-05-25T00:23:21.374Z,3.50
2019-05-25T00:25:51.263Z,3.60
2019-05-25T00:28:21.050Z,3.60
2019-05-25T00:34:19.304Z,3.43
2019-05-25T00:36:49.350Z,3.60
2019-05-25T00:39:18.807Z,3.60
2019-05-25T00:41:48.444Z,4.10
2019-05-25T00:44:20.443Z,3.50
2019-05-25T00:46:49.863Z,3.87
2019-05-25T00:49:19.336Z,3.63
2019-05-25T00:51:48.744Z,3.60
2019-05-25T00:54:27.491Z,4.03
2019-05-25T00:56:50.591Z,3.87
2019-05-25T00:59:20.817Z,3.87
2019-05-25T01:01:50.201Z,4.07
2019-05-25T01:04:19.543Z,3.70
2019-05-25T01:06:49.048Z,3.73
2019-05-25T01:12:11.186Z,4.20
2019-05-25T01:14:40.984Z,4.23
2019-05-25T01:17:10.838Z,3.80
2019-05-25T01:19:40.324Z,3.93
2019-05-25T01:22:09.703Z,3.83
2019-05-25T01:24:44.207Z,3.97
2019-05-25T01:27:10.365Z,4.03
2019-05-25T01:29:40.120Z,4.40
2019-05-25T01:32:09.678Z,4.37
2019-05-25T01:34:39.164Z,4.00
2019-05-25T01:37:09.083Z,4.57
2019-05-25T01:39:38.679Z,4.77
2019-05-25T01:42:08.125Z,4.03
2019-05-25T01:44:37.631Z,3.90
2019-05-25T01:47:07.166Z,4.17
2019-05-25T01:49:36.632Z,4.87
2019-05-25T01:52:10.449Z,4.70
2019-05-25T01:54:57.151Z,4.17
2019-05-25T01:57:14.985Z,4.40
2019-05-25T01:59:45.055Z,4.47
2019-05-25T02:02:14.773Z,4.87
2019-05-25T02:05:15.344Z,4.80
2019-05-25T02:07:45.744Z,4.33
2019-05-25T02:13:45.588Z,4.10
2019-05-25T02:16:16.616Z,4.43
2019-05-25T02:18:57.709Z,4.30
2019-05-25T02:21:42.226Z,4.77
2019-05-25T02:24:19.507Z,4.50
2019-05-25T02:27:02.182Z,4.97
2019-05-25T02:29:33.030Z,4.53
2019-05-25T02:32:03.401Z,4.67
2019-05-25T02:34:39.861Z,4.63
2019-05-25T02:47:25.679Z,5.17
2019-05-25T02:50:06.173Z,4.90
2019-05-25T02:52:44.295Z,4.83
2019-05-25T02:55:34.995Z,5.13
2019-05-25T02:58:05.733Z,5.27
2019-05-25T03:00:35.920Z,5.33
2019-05-25T03:03:06.292Z,5.47
2019-05-25T03:05:35.717Z,5.20
2019-05-25T03:08:09.030Z,4.87
2019-05-25T03:10:39.474Z,4.97
2019-05-25T03:13:14.985Z,4.97
2019-05-25T03:19:30.028Z,5.57
2019-05-25T03:22:02.776Z,5.37
2019-05-25T04:12:35.111Z,5.40
2019-05-25T04:22:06.244Z,5.53
2019-05-25T04:24:35.891Z,5.63
2019-05-25T04:27:15.731Z,5.00
2019-05-25T04:29:48.057Z,5.17
2019-05-25T04:35:49.052Z,5.57
2019-05-25T04:38:48.310Z,5.20
2019-05-25T04:50:23.274Z,5.40
2019-05-25T05:04:20.960Z,5.17
2019-05-25T05:06:53.466Z,5.33
2019-05-25T05:09:22.961Z,5.43
2019-05-25T05:12:05.976Z,6.13
2019-05-25T05:14:35.378Z,6.43
2019-05-25T05:17:04.753Z,6.30
2019-05-25T05:19:34.064Z,6.47
2019-05-25T05:22:05.945Z,6.53
2019-05-25T05:24:35.804Z,6.20
2019-05-25T05:27:05.359Z,6.10
2019-05-25T05:29:34.744Z,7.47
2019-05-25T05:32:04.534Z,6.77
2019-05-25T05:34:33.991Z,7.17
2019-05-25T05:37:06.419Z,7.57
2019-05-25T05:39:41.977Z,8.00
2019-05-25T05:42:14.890Z,7.37
2019-05-25T05:44:46.066Z,7.37
2019-05-25T05:47:17.330Z,7.70
2019-05-25T05:49:47.980Z,7.27
2019-05-25T05:52:20.795Z,8.20
2019-05-25T05:54:52.690Z,7.00
2019-05-25T05:57:22.400Z,8.17
2019-05-25T05:59:52.038Z,7.90
2019-05-25T06:02:21.640Z,7.50
2019-05-25T06:04:51.025Z,7.47
2019-05-25T06:07:20.494Z,8.10
2019-05-25T06:09:50.260Z,7.90
2019-05-25T06:12:20.143Z,8.23
2019-05-25T06:14:49.537Z,8.30
2019-05-25T06:17:20.351Z,8.03
2019-05-25T06:19:49.741Z,8.70
2019-05-25T06:22:19.692Z,8.37
2019-05-25T06:24:50.538Z,8.73
2019-05-25T06:27:27.407Z,8.87
2019-05-25T06:29:51.971Z,9.13
2019-05-25T06:32:21.377Z,9.57
2019-05-25T06:34:50.844Z,8.80
2019-05-25T06:37:20.190Z,9.07
2019-05-25T06:39:49.544Z,9.00
2019-05-25T06:42:18.925Z,9.17
2019-05-25T06:44:48.269Z,8.17
2019-05-25T06:47:17.778Z,10.20
2019-05-25T06:49:47.207Z,9.47
2019-05-25T06:52:16.979Z,9.77
2019-05-25T06:54:46.324Z,10.33
2019-05-25T06:57:15.625Z,9.57
2019-05-25T06:59:45.355Z,10.47
2019-05-25T07:02:14.838Z,9.43
2019-05-25T07:04:44.242Z,10.80
2019-05-25T07:07:13.682Z,10.40
2019-05-25T07:09:46.309Z,9.57
2019-05-25T07:12:23.985Z,10.23
2019-05-25T07:14:53.311Z,10.43
2019-05-25T07:17:22.793Z,10.63
2019-05-25T07:19:52.131Z,11.50
2019-05-25T07:22:21.515Z,11.10
2019-05-25T07:24:50.989Z,11.20
2019-05-25T07:27:20.402Z,11.27
2019-05-25T07:29:49.771Z,11.97
2019-05-25T07:32:20.380Z,12.60
2019-05-25T07:34:49.868Z,11.40
2019-05-25T07:37:19.333Z,12.07
2019-05-25T07:39:51.081Z,12.27
2019-05-25T07:42:20.440Z,11.97
2019-05-25T07:44:49.782Z,12.23
2019-05-25T07:47:19.116Z,11.63
2019-05-25T07:49:48.517Z,12.00
2019-05-25T07:52:17.817Z,11.60
2019-05-25T07:54:47.230Z,10.50
2019-05-25T07:57:16.594Z,10.00
2019-05-25T07:59:56.284Z,9.73
2019-05-25T08:02:27.083Z,10.07
2019-05-25T08:04:56.628Z,12.27
2019-05-25T08:07:26.052Z,12.30
2019-05-25T08:09:57.530Z,12.03
2019-05-25T08:12:26.936Z,12.83
2019-05-25T08:14:56.261Z,14.33
2019-05-25T08:17:26.277Z,16.03
2019-05-25T08:19:56.823Z,15.63
2019-05-25T08:22:26.180Z,14.73
2019-05-25T08:24:55.506Z,15.10
2019-05-25T08:27:30.069Z,15.90
2019-05-25T09:37:28.374Z,16.27
2019-05-25T09:40:04.097Z,17.43
2019-05-25T09:42:33.885Z,16.93
2019-05-25T09:45:13.928Z,16.97
2019-05-25T11:34:35.976Z,11.53
2019-05-25T11:37:05.307Z,12.50
2019-05-25T13:08:22.756Z,6.57
2019-05-25T13:18:58.301Z,4.00
2019-05-25T13:21:30.316Z,4.77
2019-05-25T13:34:49.754Z,3.80
2019-05-25T14:27:36.970Z,3.30
2019-05-25T15:15:16.722Z,3.10
2019-05-25T15:17:46.189Z,3.40
2019-05-25T15:20:36.155Z,3.67
2019-05-25T15:23:06.354Z,2.90
2019-05-25T15:25:35.789Z,2.77
2019-05-25T15:28:05.132Z,3.47
2019-05-25T15:49:32.969Z,3.47
2019-05-25T16:08:49.164Z,3.50
2019-05-25T16:11:19.252Z,3.70
2019-05-25T16:13:54.295Z,3.90
2019-05-25T16:16:30.194Z,4.60
2019-05-25T16:19:05.372Z,4.63
2019-05-25T16:21:41.320Z,3.83
2019-05-25T16:24:14.180Z,4.47
2019-05-25T16:26:57.543Z,4.50
2019-05-25T16:29:34.435Z,4.67
2019-05-25T16:32:29.598Z,4.40
2019-05-25T16:34:59.839Z,4.50
2019-05-25T16:37:29.634Z,4.40
2019-05-25T16:40:01.801Z,3.90
2019-05-25T16:42:31.288Z,4.20
2019-05-25T16:45:15.896Z,4.30
2019-05-25T16:50:15.137Z,3.80
2019-05-25T16:52:49.403Z,3.80
2019-05-25T16:55:20.168Z,3.97
2019-05-25T16:57:52.121Z,3.40
2019-05-25T17:00:28.356Z,4.10
2019-05-25T17:02:58.785Z,3.80
2019-05-25T17:05:33.569Z,4.37
2019-05-25T17:08:03.275Z,9.53
2019-05-25T17:10:33.018Z,10.53
2019-05-25T17:13:02.647Z,28.70
2019-05-25T17:15:32.094Z,22.47
2019-05-25T17:18:04.622Z,10.50
2019-05-25T17:20:33.099Z,7.80
2019-05-25T17:23:02.557Z,7.00
2019-05-25T17:25:35.169Z,6.80
2019-05-25T17:31:49.734Z,5.97
2019-05-25T17:34:19.302Z,5.80
2019-05-25T17:36:52.802Z,4.80
2019-05-25T17:39:22.728Z,5.67
2019-05-25T17:41:52.113Z,5.47
2019-05-25T17:44:21.479Z,5.83
2019-05-25T17:46:51.717Z,5.93
2019-05-25T17:49:28.847Z,5.73
2019-05-25T17:55:25.878Z,6.07
2019-05-25T17:57:55.248Z,4.57
2019-05-25T18:00:49.560Z,5.70
2019-05-25T18:06:36.363Z,5.20
2019-05-25T18:09:08.374Z,5.20
2019-05-25T18:11:40.135Z,4.67
2019-05-25T18:14:09.528Z,5.27
2019-05-25T18:16:40.853Z,5.73
2019-05-25T18:19:10.329Z,4.77
2019-05-25T18:21:40.050Z,5.30
2019-05-25T18:24:09.321Z,4.23
2019-05-25T18:26:38.570Z,4.60
2019-05-25T18:29:07.792Z,4.83
2019-05-25T18:31:37.045Z,4.90
2019-05-25T18:34:21.126Z,4.30
2019-05-25T18:36:37.581Z,5.47
2019-05-25T18:39:08.047Z,4.80
2019-05-25T18:41:37.287Z,5.17
2019-05-25T18:44:06.502Z,4.80
2019-05-25T18:46:36.021Z,4.80
2019-05-25T18:49:05.388Z,4.23
2019-05-25T18:51:34.792Z,4.13
2019-05-25T18:54:04.640Z,4.60
2019-05-25T18:56:34.642Z,4.90
2019-05-25T18:59:04.102Z,4.63
2019-05-25T19:01:33.964Z,5.03
2019-05-25T19:04:16.519Z,4.80
2019-05-25T19:06:45.885Z,4.90
2019-05-25T19:09:17.385Z,4.47
2019-05-25T19:11:46.744Z,5.40
2019-05-25T19:14:16.499Z,7.10
2019-05-25T19:16:45.930Z,7.57
2019-05-25T19:19:34.998Z,4.83
2019-05-25T19:22:04.923Z,5.23
2019-05-25T19:24:34.411Z,6.00
2019-05-25T19:27:04.401Z,5.27
2019-05-25T19:29:33.769Z,4.87
2019-05-25T19:32:03.171Z,4.93
2019-05-25T19:34:39.890Z,5.20
2019-05-25T19:37:11.269Z,5.53
2019-05-25T19:43:26.744Z,5.10
2019-05-25T19:46:46.982Z,5.03
2019-05-25T19:49:20.414Z,5.07
2019-05-25T19:51:52.684Z,5.00
2019-05-25T19:54:27.649Z,5.17
2019-05-25T19:57:01.641Z,4.73
2019-05-25T19:59:34.050Z,5.40
2019-05-25T20:02:07.845Z,4.97
2019-05-25T20:04:39.768Z,4.80
2019-05-25T20:07:13.211Z,4.83
2019-05-25T20:09:47.450Z,4.50
2019-05-25T20:12:19.873Z,4.57
2019-05-25T20:14:56.654Z,4.53
2019-05-25T20:17:31.138Z,4.50
2019-05-25T20:20:13.345Z,4.30
2019-05-25T20:22:54.799Z,4.77
2019-05-25T20:25:26.247Z,5.23
2019-05-25T20:28:01.870Z,4.80
2019-05-25T20:30:35.375Z,4.43
2019-05-25T20:36:38.983Z,5.80
2019-05-25T20:39:13.061Z,5.70
2019-05-25T20:41:50.914Z,6.00
2019-05-25T20:44:22.824Z,5.90
2019-05-25T20:46:56.258Z,6.47
2019-05-25T20:49:29.665Z,6.60
2019-05-25T20:52:01.203Z,6.63
2019-05-25T20:54:31.233Z,7.07
2019-05-25T20:57:03.871Z,6.60
2019-05-25T20:59:36.920Z,6.63
2019-05-25T21:02:10.102Z,7.30
2019-05-25T21:04:45.039Z,6.80
2019-05-25T21:07:19.569Z,7.07
2019-05-25T21:09:54.086Z,7.50
2019-05-25T21:12:27.477Z,7.30
2019-05-25T21:14:59.399Z,7.33
2019-05-25T21:17:33.787Z,6.90
2019-05-25T21:20:08.358Z,7.57
2019-05-25T21:23:13.244Z,7.40
2019-05-25T21:25:46.540Z,8.33
2019-05-25T21:28:19.154Z,8.03
2019-05-25T21:30:52.406Z,7.50
2019-05-25T21:33:25.850Z,8.03
2019-05-25T21:36:07.481Z,7.87
2019-05-25T21:38:35.705Z,9.00
2019-05-25T21:41:05.694Z,9.27
2019-05-25T21:43:35.044Z,9.83
2019-05-25T21:46:04.837Z,9.27
2019-05-25T21:48:35.278Z,9.20
2019-05-25T21:51:05.017Z,8.63
2019-05-25T21:53:34.301Z,9.30
2019-05-25T21:56:03.826Z,10.73
2019-05-25T21:58:33.197Z,9.67
2019-05-25T22:01:02.672Z,9.60
2019-05-25T22:03:32.183Z,9.93
2019-05-25T22:06:01.840Z,9.40
2019-05-25T22:08:31.265Z,9.10
2019-05-25T22:11:00.647Z,9.43
2019-05-25T22:13:30.031Z,10.20
2019-05-25T22:15:59.711Z,10.30
2019-05-25T22:18:29.061Z,9.97
2019-05-25T22:20:58.866Z,10.80
2019-05-25T22:23:28.234Z,10.23
2019-05-25T22:25:58.008Z,9.60
2019-05-25T22:28:41.922Z,9.57
2019-05-25T22:30:58.732Z,10.33
2019-05-25T22:33:28.065Z,10.63
2019-05-25T22:35:57.381Z,10.00
2019-05-25T22:38:26.682Z,9.30
2019-05-25T22:40:56.060Z,9.43
2019-05-25T22:43:25.686Z,9.50
2019-05-25T22:45:55.077Z,9.50
2019-05-25T22:48:24.416Z,9.67
2019-05-25T22:50:53.731Z,10.80
2019-05-25T22:53:23.063Z,9.60
2019-05-25T22:55:52.513Z,10.00
2019-05-25T22:58:21.935Z,9.67
2019-05-25T23:00:51.873Z,10.13
2019-05-25T23:03:21.331Z,9.80
2019-05-25T23:06:57.130Z,11.73
2019-05-25T23:09:15.880Z,10.07
2019-05-25T23:11:45.201Z,9.53
2019-05-25T23:14:14.597Z,10.30
2019-05-25T23:16:43.955Z,9.53
2019-05-25T23:19:13.270Z,9.30
2019-05-25T23:21:42.626Z,9.73
2019-05-25T23:24:12.005Z,9.27
2019-05-25T23:26:41.504Z,9.10
2019-05-25T23:29:10.900Z,9.33
2019-05-25T23:31:40.264Z,9.53
2019-05-25T23:34:09.594Z,9.00
2019-05-25T23:36:38.904Z,9.30
2019-05-25T23:39:08.263Z,9.87
2019-05-25T23:41:37.605Z,9.33
2019-05-25T23:44:07.215Z,9.60
2019-05-25T23:46:36.480Z,8.80
2019-05-25T23:49:05.763Z,9.17
2019-05-25T23:51:35.023Z,10.30
2019-05-25T23:54:06.319Z,10.07
2019-05-25T23:56:35.659Z,10.10
2019-05-25T23:59:05.264Z,10.43
